createdAt,value
2018-02-03T00:00:24.900Z,4.80
2018-02-03T00:03:00.186Z,5.47
2018-02-03T00:05:34.677Z,3.97
2018-02-03T00:08:09.196Z,4.70
2018-02-03T00:10:43.527Z,3.95
2018-02-03T00:13:18.044Z,4.40
2018-02-03T00:15:52.596Z,3.80
2018-02-03T00:18:27.117Z,4.15
2018-02-03T00:21:01.605Z,4.03
2018-02-03T00:23:35.965Z,4.20
2018-02-03T00:26:10.389Z,3.95
2018-02-03T00:28:44.953Z,4.93
2018-02-03T00:31:19.580Z,4.75
2018-02-03T00:33:54.021Z,4.55
2018-02-03T00:36:29.068Z,4.35
2018-02-03T00:39:03.717Z,4.70
2018-02-03T00:41:38.250Z,4.10
2018-02-03T00:44:12.690Z,4.12
2018-02-03T00:46:47.162Z,4.45
2018-02-03T00:49:21.781Z,3.92
2018-02-03T00:51:56.304Z,4.35
2018-02-03T00:54:30.738Z,5.25
2018-02-03T00:57:05.261Z,4.43
2018-02-03T00:59:39.742Z,4.90
2018-02-03T01:02:14.392Z,4.03
2018-02-03T01:04:48.997Z,4.32
2018-02-03T01:07:23.548Z,4.45
2018-02-03T01:09:57.974Z,2.80
2018-02-03T01:12:32.360Z,3.33
2018-02-03T01:15:06.892Z,2.83
2018-02-03T01:17:41.714Z,3.40
2018-02-03T01:20:16.144Z,2.95
2018-02-03T01:22:51.449Z,3.08
2018-02-03T01:25:26.072Z,4.15
2018-02-03T01:28:00.556Z,3.75
2018-02-03T01:30:35.131Z,3.05
2018-02-03T01:33:09.607Z,3.35
2018-02-03T01:35:44.169Z,3.15
2018-02-03T01:38:18.731Z,3.60
2018-02-03T01:40:54.009Z,3.35
2018-02-03T01:43:28.453Z,3.15
2018-02-03T01:46:02.855Z,3.65
2018-02-03T01:48:37.323Z,3.72
2018-02-03T01:51:11.791Z,4.10
2018-02-03T01:53:46.243Z,3.65
2018-02-03T01:56:21.543Z,3.50
2018-02-03T01:58:56.716Z,3.65
2018-02-03T02:01:31.196Z,4.55
2018-02-03T02:04:05.680Z,5.37
2018-02-03T02:06:40.036Z,3.58
2018-02-03T02:09:15.283Z,4.53
2018-02-03T02:11:49.617Z,3.83
2018-02-03T02:14:24.894Z,5.10
2018-02-03T02:16:59.346Z,2.62
2018-02-03T02:19:33.806Z,3.20
2018-02-03T02:22:08.352Z,3.15
2018-02-03T02:24:43.657Z,3.60
2018-02-03T02:27:18.164Z,2.80
2018-02-03T02:29:53.381Z,3.40
2018-02-03T02:32:27.883Z,2.95
2018-02-03T02:35:02.256Z,3.45
2018-02-03T02:37:36.818Z,3.00
2018-02-03T02:40:11.316Z,3.15
2018-02-03T02:42:45.909Z,2.90
2018-02-03T02:45:20.410Z,2.80
2018-02-03T02:47:54.764Z,3.90
2018-02-03T02:50:29.139Z,4.15
2018-02-03T02:53:03.730Z,3.55
2018-02-03T02:55:39.019Z,3.03
2018-02-03T02:58:13.440Z,3.60
2018-02-03T03:00:47.890Z,3.42
2018-02-03T03:03:22.452Z,3.35
2018-02-03T03:05:56.904Z,2.83
2018-02-03T03:08:31.327Z,3.87
2018-02-03T03:11:05.889Z,4.22
2018-02-03T03:13:40.380Z,3.00
2018-02-03T03:16:14.893Z,3.92
2018-02-03T03:18:49.435Z,3.10
2018-02-03T03:21:24.665Z,3.30
2018-02-03T03:23:59.904Z,3.72
2018-02-03T03:26:34.263Z,4.25
2018-02-03T03:29:08.778Z,3.30
2018-02-03T03:31:43.256Z,3.10
2018-02-03T03:34:17.819Z,3.95
2018-02-03T03:36:53.044Z,2.78
2018-02-03T03:39:28.333Z,3.15
2018-02-03T03:42:02.791Z,4.40
2018-02-03T03:44:37.310Z,3.40
2018-02-03T03:47:11.832Z,3.60
2018-02-03T03:49:46.259Z,3.50
2018-02-03T03:52:20.766Z,3.87
2018-02-03T03:54:55.144Z,3.85
2018-02-03T03:57:29.617Z,3.40
2018-02-03T04:00:04.220Z,3.85
2018-02-03T04:02:38.643Z,4.00
2018-02-03T04:05:13.292Z,4.50
2018-02-03T04:07:48.496Z,4.45
2018-02-03T04:10:22.948Z,3.75
2018-02-03T04:12:57.470Z,4.07
2018-02-03T04:15:31.983Z,4.20
2018-02-03T04:18:06.309Z,3.30
2018-02-03T04:20:40.655Z,4.47
2018-02-03T04:23:15.237Z,3.90
2018-02-03T04:25:49.766Z,3.33
2018-02-03T04:28:24.128Z,4.30
2018-02-03T04:30:58.601Z,3.62
2018-02-03T04:33:33.818Z,3.80
2018-02-03T04:36:08.211Z,3.45
2018-02-03T04:38:42.700Z,3.87
2018-02-03T04:41:17.217Z,5.00
2018-02-03T04:43:51.712Z,4.12
2018-02-03T04:46:26.072Z,4.18
2018-02-03T04:49:00.687Z,4.32
2018-02-03T04:51:35.032Z,4.00
2018-02-03T04:54:09.467Z,3.65
2018-02-03T04:56:43.981Z,4.00
2018-02-03T04:59:18.443Z,4.10
2018-02-03T05:01:52.798Z,3.58
2018-02-03T05:04:27.371Z,3.40
2018-02-03T05:07:01.874Z,3.15
2018-02-03T05:09:36.208Z,3.00
2018-02-03T05:12:10.650Z,3.55
2018-02-03T05:14:45.089Z,3.45
2018-02-03T05:17:19.478Z,3.28
2018-02-03T05:19:53.811Z,9.70
2018-02-03T05:22:28.282Z,5.07
2018-02-03T05:25:02.845Z,3.15
2018-02-03T05:27:37.245Z,4.30
2018-02-03T05:30:11.626Z,3.33
2018-02-03T05:32:46.415Z,3.53
2018-02-03T05:35:20.910Z,3.70
2018-02-03T05:37:55.437Z,3.80
2018-02-03T05:40:30.701Z,3.33
2018-02-03T05:43:05.804Z,3.42
2018-02-03T05:45:40.240Z,4.25
2018-02-03T05:48:14.704Z,2.95
2018-02-03T05:50:49.293Z,5.90
2018-02-03T05:53:23.819Z,4.28
2018-02-03T05:55:59.024Z,3.20
2018-02-03T05:58:33.483Z,4.53
2018-02-03T06:01:07.887Z,5.07
2018-02-03T06:03:43.123Z,3.28
2018-02-03T06:06:17.594Z,2.20
2018-02-03T06:08:52.870Z,3.28
2018-02-03T06:11:27.299Z,2.67
2018-02-03T06:14:01.873Z,2.67
2018-02-03T06:16:36.317Z,3.17
2018-02-03T06:19:10.743Z,2.65
2018-02-03T06:21:45.919Z,2.85
2018-02-03T06:24:20.351Z,3.25
2018-02-03T06:26:55.342Z,2.80
2018-02-03T06:29:30.031Z,2.97
2018-02-03T06:32:04.914Z,3.10
2018-02-03T06:34:39.419Z,2.83
2018-02-03T06:37:14.745Z,2.10
2018-02-03T06:39:49.136Z,3.20
2018-02-03T06:42:24.434Z,2.05
2018-02-03T06:44:58.881Z,2.40
2018-02-03T06:47:33.382Z,3.05
2018-02-03T06:50:08.529Z,3.17
2018-02-03T06:52:43.076Z,3.00
2018-02-03T06:55:17.465Z,3.70
2018-02-03T06:57:51.992Z,2.75
2018-02-03T07:00:26.486Z,3.45
2018-02-03T07:03:01.607Z,3.15
2018-02-03T07:05:36.884Z,2.40
2018-02-03T07:08:11.464Z,2.40
2018-02-03T07:10:46.773Z,3.62
2018-02-03T07:13:21.956Z,2.90
2018-02-03T07:15:56.417Z,2.60
2018-02-03T07:18:30.824Z,2.10
2018-02-03T07:21:05.264Z,2.67
2018-02-03T07:23:39.866Z,3.12
2018-02-03T07:26:14.249Z,3.33
2018-02-03T07:28:48.592Z,2.55
2018-02-03T07:31:23.848Z,3.92
2018-02-03T07:33:58.340Z,3.20
2018-02-03T07:36:32.734Z,2.70
2018-02-03T07:39:07.276Z,3.10
2018-02-03T07:41:42.443Z,3.67
2018-02-03T07:44:17.602Z,2.80
2018-02-03T07:46:52.103Z,3.33
2018-02-03T07:49:26.561Z,2.72
2018-02-03T07:52:00.990Z,3.15
2018-02-03T07:54:35.396Z,3.12
2018-02-03T07:57:09.820Z,3.67
2018-02-03T07:59:44.185Z,3.17
2018-02-03T08:02:19.389Z,3.40
2018-02-03T08:04:54.040Z,3.10
2018-02-03T08:07:28.691Z,3.67
2018-02-03T08:10:03.802Z,3.87
2018-02-03T08:12:38.360Z,3.40
2018-02-03T08:15:12.916Z,2.45
2018-02-03T08:17:49.496Z,4.10
2018-02-03T08:20:23.905Z,2.80
2018-02-03T08:22:58.429Z,3.50
2018-02-03T08:25:32.940Z,3.80
2018-02-03T08:28:08.240Z,3.55
2018-02-03T08:30:42.761Z,2.87
2018-02-03T08:33:18.105Z,3.62
2018-02-03T08:35:52.470Z,4.30
2018-02-03T08:38:27.735Z,3.78
2018-02-03T08:41:02.082Z,2.80
2018-02-03T08:43:36.600Z,3.28
2018-02-03T08:46:11.206Z,2.50
2018-02-03T08:48:45.622Z,2.53
2018-02-03T08:51:20.424Z,3.47
2018-02-03T08:53:54.923Z,4.30
2018-02-03T08:56:29.983Z,3.85
2018-02-03T08:59:05.224Z,4.20
2018-02-03T09:01:39.649Z,3.72
2018-02-03T09:04:14.920Z,4.37
2018-02-03T09:06:50.163Z,4.53
2018-02-03T09:09:24.646Z,3.50
2018-02-03T09:12:05.974Z,3.50
2018-02-03T09:14:40.500Z,4.47
2018-02-03T09:17:15.141Z,3.90
2018-02-03T09:19:49.671Z,3.83
2018-02-03T09:22:24.265Z,3.75
2018-02-03T09:24:58.867Z,3.65
2018-02-03T09:27:33.386Z,4.60
2018-02-03T09:30:07.687Z,3.85
2018-02-03T09:32:42.165Z,4.05
2018-02-03T09:35:16.632Z,2.35
2018-02-03T09:37:51.028Z,4.68
2018-02-03T09:40:25.598Z,3.53
2018-02-03T09:43:00.145Z,4.30
2018-02-03T09:45:34.690Z,4.15
2018-02-03T09:48:09.970Z,3.97
2018-02-03T09:50:44.517Z,4.05
2018-02-03T09:53:19.179Z,3.67
2018-02-03T09:55:53.641Z,4.00
2018-02-03T09:58:28.150Z,4.10
2018-02-03T10:01:03.176Z,4.30
2018-02-03T10:03:37.667Z,4.10
2018-02-03T10:06:12.308Z,4.15
2018-02-03T10:08:46.812Z,4.65
2018-02-03T10:11:21.973Z,5.70
2018-02-03T10:13:56.382Z,4.00
2018-02-03T10:16:30.877Z,4.37
2018-02-03T10:19:05.360Z,3.22
2018-02-03T10:21:39.816Z,4.53
2018-02-03T10:24:14.404Z,5.80
2018-02-03T10:26:48.724Z,3.97
2018-02-03T10:29:23.468Z,10.18
2018-02-03T10:31:58.020Z,2.53
2018-02-03T10:34:32.608Z,2.83
2018-02-03T10:37:07.123Z,2.62
2018-02-03T10:39:41.448Z,3.08
2018-02-03T10:42:16.129Z,4.15
2018-02-03T10:44:50.640Z,2.70
2018-02-03T10:47:25.177Z,2.95
2018-02-03T10:49:59.720Z,2.75
2018-02-03T10:52:34.066Z,3.00
2018-02-03T10:55:08.604Z,2.83
2018-02-03T10:57:43.877Z,4.03
2018-02-03T11:00:19.069Z,2.33
2018-02-03T11:02:54.162Z,2.55
2018-02-03T11:05:28.757Z,2.83
2018-02-03T11:08:03.222Z,4.72
2018-02-03T11:10:38.568Z,3.85
2018-02-03T11:13:13.146Z,3.78
2018-02-03T11:15:47.654Z,3.22
2018-02-03T11:18:23.249Z,3.15
2018-02-03T11:20:57.568Z,3.95
2018-02-03T11:23:32.242Z,3.72
2018-02-03T11:26:06.774Z,5.07
2018-02-03T11:28:41.296Z,4.28
2018-02-03T11:31:15.643Z,3.87
2018-02-03T11:33:50.104Z,4.90
2018-02-03T11:36:24.475Z,4.20
2018-02-03T11:38:59.099Z,3.05
2018-02-03T11:41:33.613Z,4.57
2018-02-03T11:44:08.138Z,3.97
2018-02-03T11:46:42.661Z,3.95
2018-02-03T11:49:17.216Z,4.35
2018-02-03T11:51:52.404Z,3.17
2018-02-03T11:54:26.729Z,3.47
2018-02-03T11:57:01.351Z,3.30
2018-02-03T11:59:35.853Z,5.05
2018-02-03T12:02:10.597Z,8.98
2018-02-03T12:04:45.059Z,3.90
2018-02-03T12:07:19.548Z,2.22
2018-02-03T12:09:53.869Z,4.00
2018-02-03T12:12:28.416Z,3.20
2018-02-03T12:15:03.008Z,4.68
2018-02-03T12:17:37.464Z,3.67
2018-02-03T12:20:11.778Z,4.10
2018-02-03T12:22:46.227Z,2.85
2018-02-03T12:25:20.730Z,3.50
2018-02-03T12:27:55.307Z,6.10
2018-02-03T12:30:29.839Z,4.82
2018-02-03T12:33:04.344Z,4.68
2018-02-03T12:35:38.896Z,3.17
2018-02-03T12:38:13.469Z,4.10
2018-02-03T12:40:48.798Z,9.40
2018-02-03T12:43:23.225Z,8.13
2018-02-03T12:45:57.792Z,6.20
2018-02-03T12:48:32.297Z,4.75
2018-02-03T12:51:06.775Z,4.72
2018-02-03T12:53:41.880Z,5.30
2018-02-03T12:56:17.449Z,5.85
2018-02-03T12:58:52.017Z,4.37
2018-02-03T13:01:27.295Z,1.27
2018-02-03T13:04:01.687Z,4.07
2018-02-03T13:06:36.144Z,4.82
2018-02-03T13:09:10.661Z,4.15
2018-02-03T13:11:45.148Z,2.03
2018-02-03T13:14:20.510Z,4.12
2018-02-03T13:16:55.012Z,5.75
2018-02-03T13:19:29.507Z,4.40
2018-02-03T13:22:03.956Z,5.20
2018-02-03T13:24:38.280Z,4.32
2018-02-03T13:27:12.792Z,5.10
2018-02-03T13:29:47.374Z,4.62
2018-02-03T13:32:21.848Z,4.20
2018-02-03T13:34:57.089Z,3.83
2018-02-03T13:37:31.536Z,4.37
2018-02-03T13:40:06.224Z,5.05
2018-02-03T13:42:40.974Z,5.65
2018-02-03T13:45:15.467Z,6.12
2018-02-03T13:47:50.052Z,6.40
2018-02-03T13:50:24.552Z,5.72
2018-02-03T13:52:58.960Z,3.05
2018-02-03T13:55:33.637Z,4.68
2018-02-03T13:58:08.904Z,5.20
2018-02-03T14:00:43.400Z,5.82
2018-02-03T14:03:17.918Z,6.20
2018-02-03T14:05:52.280Z,4.62
2018-02-03T14:08:26.933Z,4.85
2018-02-03T14:11:01.426Z,3.78
2018-02-03T14:13:36.075Z,6.07
2018-02-03T14:16:11.356Z,6.60
2018-02-03T14:18:45.901Z,4.93
2018-02-03T14:21:20.428Z,6.22
2018-02-03T14:24:00.596Z,5.85
2018-02-03T14:26:35.810Z,4.20
2018-02-03T14:29:10.233Z,6.45
2018-02-03T14:31:45.429Z,4.55
2018-02-03T14:34:19.809Z,7.03
2018-02-03T14:36:55.044Z,0.93
2018-02-03T14:39:29.432Z,6.57
2018-02-03T14:42:03.989Z,5.87
2018-02-03T14:44:39.216Z,3.25
2018-02-03T14:47:13.624Z,2.60
2018-02-03T14:49:48.881Z,5.28
2018-02-03T14:52:23.386Z,3.65
2018-02-03T14:55:06.739Z,5.57
2018-02-03T14:57:41.227Z,5.35
2018-02-03T15:00:15.717Z,6.47
2018-02-03T15:02:50.988Z,9.13
2018-02-03T15:05:25.416Z,9.73
2018-02-03T15:07:59.999Z,7.28
2018-02-03T15:10:34.563Z,6.60
2018-02-03T15:13:09.138Z,7.68
2018-02-03T15:15:43.497Z,7.28
2018-02-03T15:18:17.953Z,7.10
2018-02-03T15:20:52.471Z,6.45
2018-02-03T15:23:26.971Z,5.72
2018-02-03T15:26:01.954Z,5.72
2018-02-03T15:28:37.323Z,7.32
2018-02-03T15:31:12.036Z,5.43
2018-02-03T15:33:46.593Z,5.90
2018-02-03T15:36:21.045Z,4.87
2018-02-03T15:38:55.431Z,4.93
2018-02-03T15:41:30.684Z,6.75
2018-02-03T15:44:05.982Z,6.70
2018-02-03T15:46:40.384Z,5.78
2018-02-03T15:49:14.932Z,8.77
2018-02-03T15:51:49.478Z,7.37
2018-02-03T15:54:24.076Z,6.20
2018-02-03T15:56:58.486Z,6.25
2018-02-03T15:59:32.907Z,3.97
2018-02-03T16:02:07.377Z,6.82
2018-02-03T16:04:41.879Z,7.07
2018-02-03T16:07:16.673Z,5.40
2018-02-03T16:09:51.054Z,8.10
2018-02-03T16:12:25.560Z,7.70
2018-02-03T16:15:00.125Z,7.30
2018-02-03T16:17:34.508Z,5.53
2018-02-03T16:20:09.004Z,7.15
2018-02-03T16:22:43.477Z,8.82
2018-02-03T16:25:17.925Z,7.03
2018-02-03T16:27:52.412Z,8.25
2018-02-03T16:30:26.921Z,8.00
2018-02-03T16:33:01.453Z,7.05
2018-02-03T16:35:35.961Z,5.82
2018-02-03T16:38:10.448Z,8.30
2018-02-03T16:40:47.260Z,4.45
2018-02-03T16:43:21.648Z,8.20
2018-02-03T16:45:56.155Z,7.05
2018-02-03T16:51:11.540Z,8.50
2018-02-03T16:53:46.369Z,7.18
2018-02-03T16:56:32.988Z,7.68
2018-02-03T16:59:07.662Z,8.93
2018-02-03T17:01:42.243Z,9.15
2018-02-03T17:04:16.673Z,9.82
2018-02-03T17:06:51.236Z,9.75
2018-02-03T17:09:26.515Z,8.35
2018-02-03T17:12:01.089Z,9.30
2018-02-03T17:14:35.586Z,10.18
2018-02-03T17:17:10.843Z,9.05
2018-02-03T17:19:45.206Z,10.15
2018-02-03T17:22:19.749Z,7.65
2018-02-03T17:24:54.297Z,10.02
2018-02-03T17:27:28.802Z,8.30
2018-02-03T17:30:03.312Z,7.80
2018-02-03T17:32:37.685Z,8.82
2018-02-03T17:35:12.228Z,9.75
2018-02-03T17:37:52.374Z,7.90
2018-02-03T17:40:26.842Z,5.75
2018-02-03T17:43:02.108Z,7.05
2018-02-03T17:45:42.196Z,7.87
2018-02-03T17:48:16.736Z,8.85
2018-02-03T17:50:51.501Z,9.32
2018-02-03T17:53:26.733Z,5.47
2018-02-03T17:56:07.849Z,7.72
2018-02-03T17:58:42.328Z,10.02
2018-02-03T18:01:16.692Z,7.85
2018-02-03T18:03:52.039Z,6.22
2018-02-03T18:06:32.313Z,7.70
2018-02-03T18:09:06.832Z,7.35
2018-02-03T18:11:41.220Z,5.45
2018-02-03T18:14:15.564Z,6.07
2018-02-03T18:16:49.962Z,7.78
2018-02-03T18:19:24.480Z,6.47
2018-02-03T18:21:59.800Z,7.55
2018-02-03T18:24:34.242Z,5.85
2018-02-03T18:27:08.850Z,5.80
2018-02-03T18:29:43.291Z,7.18
2018-02-03T18:32:18.513Z,6.78
2018-02-03T18:34:53.100Z,6.07
2018-02-03T18:37:27.908Z,6.43
2018-02-03T18:40:02.460Z,6.75
2018-02-03T18:42:36.988Z,6.95
2018-02-03T18:45:23.218Z,6.47
2018-02-03T18:47:57.911Z,6.68
2018-02-03T18:50:33.237Z,3.53
2018-02-03T18:53:07.758Z,6.70
2018-02-03T18:55:42.980Z,5.80
2018-02-03T18:58:17.497Z,5.78
2018-02-03T19:00:51.988Z,6.12
2018-02-03T19:03:26.532Z,6.20
2018-02-03T19:06:01.816Z,5.45
2018-02-03T19:08:36.223Z,5.57
2018-02-03T19:11:10.740Z,5.55
2018-02-03T19:13:45.232Z,5.12
2018-02-03T19:16:19.708Z,5.28
2018-02-03T19:18:54.072Z,4.43
2018-02-03T19:21:29.326Z,5.37
2018-02-03T19:24:03.837Z,5.05
2018-02-03T19:26:38.472Z,5.30
2018-02-03T19:29:13.000Z,4.95
2018-02-03T19:31:47.474Z,5.07
2018-02-03T19:34:22.011Z,3.97
2018-02-03T19:36:57.262Z,4.43
2018-02-03T19:39:31.649Z,3.30
2018-02-03T19:42:06.191Z,5.47
2018-02-03T19:44:41.643Z,4.72
2018-02-03T19:47:16.195Z,3.50
2018-02-03T19:49:50.706Z,3.72
2018-02-03T19:52:25.051Z,6.05
2018-02-03T19:54:59.611Z,3.22
2018-02-03T19:57:34.104Z,2.53
2018-02-03T20:00:08.625Z,3.42
2018-02-03T20:02:43.105Z,3.12
2018-02-03T20:05:17.510Z,3.87
2018-02-03T20:07:51.921Z,6.32
2018-02-03T20:10:26.425Z,5.90
2018-02-03T20:13:00.880Z,5.70
2018-02-03T20:15:36.144Z,6.18
2018-02-03T20:18:10.512Z,8.20
2018-02-03T20:20:45.029Z,6.43
2018-02-03T20:23:19.353Z,5.80
2018-02-03T20:25:53.940Z,5.90
2018-02-03T20:28:28.284Z,6.30
2018-02-03T20:31:03.013Z,5.45
2018-02-03T20:33:37.764Z,4.65
2018-02-03T20:36:12.257Z,5.37
2018-02-03T20:38:46.837Z,4.00
2018-02-03T20:41:21.179Z,4.05
2018-02-03T20:43:55.590Z,3.83
2018-02-03T20:46:29.943Z,1.95
2018-02-03T20:49:04.440Z,1.25
2018-02-03T20:51:39.941Z,4.37
2018-02-03T20:54:14.571Z,6.50
2018-02-03T20:56:49.038Z,4.15
2018-02-03T20:59:23.473Z,5.53
2018-02-03T21:01:57.949Z,6.32
2018-02-03T21:04:32.260Z,4.15
2018-02-03T21:07:06.760Z,5.57
2018-02-03T21:09:41.177Z,7.07
2018-02-03T21:12:15.648Z,5.70
2018-02-03T21:14:50.069Z,5.93
2018-02-03T21:17:24.572Z,7.10
2018-02-03T21:19:59.768Z,7.45
2018-02-03T21:22:34.148Z,7.30
2018-02-03T21:25:08.512Z,3.62
2018-02-03T21:27:43.044Z,5.93
2018-02-03T21:30:17.550Z,5.28
2018-02-03T21:32:52.124Z,6.85
2018-02-03T21:35:26.488Z,3.58
2018-02-03T21:38:01.029Z,6.70
2018-02-03T21:40:35.590Z,8.30
2018-02-03T21:43:10.102Z,5.93
2018-02-03T21:45:44.655Z,4.82
2018-02-03T21:48:19.757Z,7.12
2018-02-03T21:50:54.273Z,6.87
2018-02-03T21:53:28.764Z,5.28
2018-02-03T21:56:04.008Z,4.50
2018-02-03T21:58:38.468Z,6.28
2018-02-03T22:01:12.826Z,4.25
2018-02-03T22:03:47.264Z,5.12
2018-02-03T22:06:21.808Z,6.68
2018-02-03T22:08:56.169Z,3.33
2018-02-03T22:11:30.672Z,5.43
2018-02-03T22:14:05.040Z,7.37
2018-02-03T22:16:39.580Z,6.45
2018-02-03T22:19:14.122Z,7.72
2018-02-03T22:21:49.341Z,7.65
2018-02-03T22:24:23.872Z,8.93
2018-02-03T22:26:58.353Z,6.05
2018-02-03T22:29:32.948Z,3.28
2018-02-03T22:32:07.519Z,7.32
2018-02-03T22:34:42.047Z,5.40
2018-02-03T22:37:16.537Z,7.50
2018-02-03T22:39:51.105Z,8.18
2018-02-03T22:42:25.608Z,9.27
2018-02-03T22:45:00.142Z,2.60
2018-02-03T22:47:34.631Z,6.22
2018-02-03T22:50:09.826Z,9.73
2018-02-03T22:52:44.309Z,9.85
2018-02-03T22:55:18.694Z,6.55
2018-02-03T22:57:54.120Z,5.37
2018-02-03T23:00:28.495Z,7.12
2018-02-03T23:03:03.127Z,6.82
2018-02-03T23:05:37.507Z,3.65
2018-02-03T23:08:11.904Z,4.18
2018-02-03T23:10:46.418Z,4.75
2018-02-03T23:13:20.850Z,8.35
2018-02-03T23:15:56.130Z,8.15
2018-02-03T23:18:30.612Z,5.15
2018-02-03T23:21:05.066Z,3.87
2018-02-03T23:23:39.661Z,4.00
2018-02-03T23:26:14.073Z,6.05
2018-02-03T23:28:48.585Z,3.80
2018-02-03T23:31:23.059Z,7.85
2018-02-03T23:33:57.512Z,9.45
2018-02-03T23:36:31.895Z,10.13
2018-02-03T23:39:07.054Z,9.18
2018-02-03T23:41:42.380Z,7.90
2018-02-03T23:44:16.716Z,6.47
2018-02-03T23:46:51.020Z,10.00
2018-02-03T23:49:26.264Z,7.12
2018-02-03T23:52:00.593Z,6.25
2018-02-03T23:54:35.110Z,7.65
2018-02-03T23:57:09.483Z,8.55
2018-02-03T23:59:44.008Z,3.08
